Airfield :
LOGIN :

Register | Disclaimer

   EN    FR    IT 

 










Legend :    VFR   Marginal VFR   IFR   Intensive IFR   Very Intensive IFR
Visi :
Ceiling :
>= 8 km
>= 3000ft
5 to 8 km
1000 to 3000 ft
1500m to 5 km
500 to 1000 ft
800 to 1500m
200 to 500 ft
< 800m
< 200 ft
Symbols :   Thunderstorms  Fog  Heavy snow  Heavy precipitations  Wind > 20 kt
SIGMETs :     Misc.  Thunderstorms  Icing  Turbulence  Mountain Waves  Volcanic Ashes






- Airport Elevation : 247 ft
- IATA code : BLL


EKBI - Billund

CURRENT METAR :
  • 292350Z AUTO 14006KT 9999 BKN012/// BKN064/// 12/11 Q1005

EXPIRED METARs :
  • 292320Z AUTO 15005KT 120V180 9999 BKN014/// BKN064/// BKN120/// 12/11 Q1005
  • 292250Z AUTO 14006KT 9999 SCT015/// BKN059/// 12/11 Q1005
  • 292220Z AUTO 15006KT 110V180 9999 BKN018/// BKN066/// 12/11 Q1005
  • 292150Z AUTO 15006KT 120V180 9999 FEW018/// BKN026/// BKN061/// 13/11 Q1005
  • 292120Z AUTO 13005KT 9999 SCT027/// BKN073/// BKN170/// 12/11 Q1005
  • 292050Z AUTO 13004KT 9999 BKN170/// 12/11 Q1005
  • 292020Z AUTO 15005KT 9999 BKN190/// 13/11 Q1005
  • 291950Z AUTO 15005KT 9999 FEW022/// FEW190/// 13/11 Q1005
  • 291920Z AUTO 16003KT 9999 NCD 14/11 Q1005

TAF TAF EKBI
Valid from the 30 at 00:00 until the 31 at 00:00 UTC


292316Z 3000/3024 16008KT 9999 BKN020
TEMPO 3000/3007 3000 BR BKN010 SCT020CB
TEMPO 3007/3015 4000 SHRA BKN010 BKN020CB
PROB40
TEMPO 3010/3015 TSRA
TEMPO 3015/3024 SCT020CB



MET'MAP, your aeronautical weather chart ! - Copyright ORBIFLY December 2007 - Disclaimer

ORBIFLY MET'MAP TEAM :

Programming & Development : Alexandra Zaïnal
Original concept : Baudouin d'Aumeries
Technical & hardware support : Manuel Goepfert
Assistance : Marc-Olivier Méhu




SOURCES & CREDITS :

   NOAA